Historyczne dane pomiarowe

Dodano dane terminowe – wersja testowa.

Dane z okresu 1951-2019

Wersja bazy: 1.34 [2019-03-16, lista zmian], aktualizacja planowana na 2019-04-15

Dane meteo z obszaru Polski uzyskane na podstawie danych udostępnionych przez Instytut Meteorologii i Gospodarki Wodnej – Państwowy Instytut Badawczy.

 

Wybierz Datę:    

       

TemperaturaWilgotnośćWiatrCiśnienieOpadyŚniegCzas trwania zjawisk
 Stacja t tx tn tng RH VA  wxwx mslp ppp RRR   cm mm wxwxwxwxwxwxwx
1956-11-09 -2.4 -0.1 -3.8- 78.0- 4.0 0.3---- 0.0------------
1956-11-08 -1.2 2.6 -4.2- 81.3- 3.7 0.3---- 0.0------------
1956-11-07 0.8 4.2 -0.2- 78.8- 6.3 2.7---- 0.0------------
1956-11-06 1.1 4.1 -0.1- 83.3- 6.3 5.7---- 0.3------------
1956-11-05 4.4 7.7 -0.4- 86.0- 3.0 3.0---- 1.8------------
1956-11-04 0.4 4.3 -4.4- 73.8- 3.0 1.0---- 0.0------------
1956-11-03 -1.2 4.4 -5.5- 75.0- 1.7 0.0---- 0.0------------
1956-11-02 0.2 4.1 -1.6- 92.8- 3.3 0.0---- 0.0------------
1956-11-01 -0.8 2.9 -8.3- 69.8- 2.3 1.3---- 0.7------------
1956-10-31 -6.0 -1.1 -7.9- 82.5- 0.0 0.7---- 0.0------------
1956-10-30 -0.1 6.4 -1.5- 87.5- 8.0 3.3---- 0.0------------
1956-10-29 5.1 9.1 3.1- 90.8- 7.0 2.0---- 0.0------------
1956-10-28 9.1 10.2 8.9- 99.3- 8.0 1.3---- 9.0------------
1956-10-27 9.3 10.7 6.8- 97.5- 8.0 1.7---- 3.2------------
1956-10-26 7.4 11.4 7.0- 97.8- 8.0 1.0---- 5.1------------
1956-10-25 11.0 14.4 7.7- 87.3- 5.3 0.7---- 0.9------------
1956-10-24 12.1 16.0 4.7- 81.8- 4.7 1.0---- 0.0------------
1956-10-23 7.9 12.5 5.0- 87.8- 2.3 1.3---- 0.0------------
1956-10-22 11.0 12.6 8.6- 92.0- 7.7 1.7---- 0.0------------
1956-10-21 12.4 17.6 9.1- 89.5- 3.0 1.3---- 0.0------------
1956-10-20 10.1 13.7 5.6- 89.5- 6.3 0.3---- 0.0------------
1956-10-19 10.7 14.4 8.4- 97.0- 7.0 1.3---- 1.2------------
1956-10-18 10.6 12.6 4.5- 94.5- 8.0 0.0---- 3.5------------
1956-10-17 7.0 14.2 0.6- 79.5- 0.3 0.3---- 0.0------------
1956-10-16 4.2 12.9 -1.5- 84.0- 0.0 0.3---- 0.0------------
1956-10-15 4.3 11.6 0.8- 87.8- 2.7 0.7---- 0.0------------
1956-10-14 6.4 11.9 2.9- 76.3- 2.0 2.0---- 0.0------------
1956-10-13 11.0 12.5 8.1- 78.5- 7.3 7.0---- 5.8------------
1956-10-12 9.1 12.3 8.6- 86.8- 5.7 3.0---- 0.0------------
1956-10-11 8.1 10.5 3.4- 76.5- 7.0 2.0---- 0.0------------
1956-10-10 3.4 9.4 -1.5- 85.0- 4.3 0.7---- 0.0------------
1956-10-09 6.5 8.3 1.8- 95.3- 6.0 2.0---- 3.6------------
1956-10-08 4.6 8.5 1.2- 82.0- 7.3 0.7---- 0.0------------
1956-10-07 6.3 9.2 5.0- 83.0- 6.0 4.7---- 0.0------------
1956-10-06 5.9 7.3 4.7- 94.5- 8.0 3.7---- 25.9------------
1956-10-05 8.5 13.8 6.3- 86.0- 4.3 0.7---- 0.6------------
1956-10-04 10.6 12.9 5.7- 95.0- 5.3 0.0---- 0.0------------
1956-10-03 12.7 18.9 8.7- 86.5- 5.0 2.0---- 1.0------------
1956-10-02 16.5 25.8 9.5- 79.8- 4.3 1.3---- 0.0------------
1956-10-01 15.3 24.7 6.7- 83.0- 2.3 1.3---- 0.0------------
1956-09-30 10.9 17.9 7.8- 89.8- 4.3 0.7---- 0.0------------
1956-09-29 15.5 18.9 13.6- 83.0- 5.0 3.0---- 0.0------------
1956-09-28 15.2 18.9 12.0- 77.8- 5.0 3.0---- 0.0------------
1956-09-27 16.3 24.0 8.6- 79.5- 1.3 0.7---- 0.0------------
1956-09-26 15.2 23.9 8.5- 68.8- 0.0 1.3---- 0.0------------
1956-09-25 12.3 22.3 2.6- 77.3- 0.0 1.0---- 0.0------------
1956-09-24 9.5 16.4 4.2- 63.0- 0.0 3.0---- 0.0------------
1956-09-23 11.3 18.5 7.7- 73.5- 2.0 1.3---- 0.0------------
1956-09-22 12.6 19.6 6.1- 74.0- 0.0 1.3---- 0.0------------
1956-09-21 10.3 19.7 2.1- 80.0- 0.0 0.3---- 0.0------------
1956-09-20 9.3 18.1 3.2- 80.0- 3.3 0.7---- 0.0------------
1956-09-19 8.9 17.5 1.1- 81.5- 1.0 0.3---- 0.0------------
1956-09-18 7.7 13.9 2.7- 86.5- 2.3 1.0---- 0.0------------
1956-09-17 8.6 13.1 6.5- 80.3- 5.0 2.3---- 2.6------------
1956-09-16 10.5 15.9 5.3- 79.5- 7.0 3.0---- 0.0------------
1956-09-15 10.0 15.9 5.2- 89.5- 5.3 1.3---- 0.0------------
1956-09-14 9.3 15.4 4.9- 88.5- 2.3 0.7---- 0.0------------
1956-09-13 10.1 14.1 7.9- 81.8- 7.0 3.0---- 1.0------------
1956-09-12 11.1 15.4 9.0- 85.0- 4.7 3.0---- 10.2------------
1956-09-11 13.6 16.7 12.6- 94.5- 5.0 0.0---- 12.1------------
273.8 ms

 

Źródłem pochodzenia danych jest Instytut Meteorologii i Gospodarki Wodnej – Państwowy Instytut Badawczy. Dane Instytutu Meteorologii i Gospodarki Wodnej – Państwowego Instytutu Badawczego zostały przetworzone.

Dane źródłowe można odnaleźć na stronie https://dane.imgw.pl